Time;durP1;ratioP1;P1;durP2;ratioP2;P2;SDS_P1;SDS_P2;PMS_P1;PMS_P2;Temp;Humidity;BMP_temperature;BMP_pressure;BME280_temperature;BME280_humidity;BME280_pressure;Samples;Min_cycle;Max_cycle;Signal;HPM_P1;HPM_P2
2023/07/30 00:00:22;;;;;;;1.85;1.40;;;;;;;21.15;100.00;98327.78;4484347;32;20170;-66
2023/07/30 00:02:50;;;;;;;2.37;1.17;;;;;;;21.23;100.00;98327.50;4484070;31;20152;-66
2023/07/30 00:05:18;;;;;;;4.25;1.50;;;;;;;21.24;100.00;98329.16;4484468;32;20089;-66
2023/07/30 00:07:45;;;;;;;1.30;1.02;;;;;;;21.25;100.00;98336.09;4483998;31;20153;-66
2023/07/30 00:10:13;;;;;;;1.58;1.30;;;;;;;21.18;100.00;98329.19;4484225;31;20115;-66
2023/07/30 00:12:41;;;;;;;2.22;1.62;;;;;;;21.14;100.00;98322.69;4483920;31;20118;-66
2023/07/30 00:15:09;;;;;;;2.90;1.40;;;;;;;21.11;100.00;98321.25;4483940;31;20498;-66
2023/07/30 00:17:37;;;;;;;2.08;1.52;;;;;;;21.23;100.00;98316.84;4483910;31;20115;-66
2023/07/30 00:20:06;;;;;;;6.05;1.50;;;;;;;21.18;100.00;98316.72;4483845;32;20087;-66
2023/07/30 00:22:36;;;;;;;4.45;1.50;;;;;;;21.20;100.00;98316.50;4483930;32;20441;-66
2023/07/30 00:25:05;;;;;;;1.98;1.35;;;;;;;21.16;100.00;98317.94;4483897;32;20351;-66
2023/07/30 00:27:33;;;;;;;2.15;1.40;;;;;;;21.12;100.00;98319.41;4483684;31;20142;-66
2023/07/30 00:30:00;;;;;;;2.35;1.48;;;;;;;21.04;100.00;98326.63;4483835;32;20144;-66
2023/07/30 00:32:31;;;;;;;1.65;1.45;;;;;;;20.98;100.00;98319.50;4483899;32;20117;-66
2023/07/30 00:34:59;;;;;;;2.00;1.65;;;;;;;20.88;100.00;98319.19;4483570;32;20097;-66
2023/07/30 00:37:28;;;;;;;2.42;1.90;;;;;;;20.74;100.00;98321.91;4483457;32;20509;-66
2023/07/30 00:39:56;;;;;;;2.10;1.45;;;;;;;20.67;100.00;98315.00;4485729;32;20092;-66
2023/07/30 00:42:23;;;;;;;5.80;2.03;;;;;;;20.59;100.00;98313.38;4485922;32;20092;-66
2023/07/30 00:44:52;;;;;;;2.78;1.70;;;;;;;20.54;100.00;98305.19;4485802;32;20123;-66
2023/07/30 00:47:21;;;;;;;4.97;1.70;;;;;;;20.50;100.00;98303.97;4485731;32;20115;-66
2023/07/30 00:49:50;;;;;;;4.03;1.98;;;;;;;20.46;100.00;98302.81;4485786;31;20134;-66
2023/07/30 00:52:18;;;;;;;4.37;1.80;;;;;;;20.35;100.00;98297.12;4485890;31;20096;-66
2023/07/30 00:54:48;;;;;;;2.05;1.50;;;;;;;20.30;100.00;98288.97;4485919;31;20461;-66
2023/07/30 00:57:17;;;;;;;2.95;1.75;;;;;;;20.26;100.00;98292.22;4484536;32;20101;-65
2023/07/30 00:59:46;;;;;;;2.50;1.30;;;;;;;20.22;100.00;98286.53;4485853;31;20092;-66
2023/07/30 01:02:14;;;;;;;2.60;1.42;;;;;;;20.16;100.00;98300.66;4484581;32;20096;-66
2023/07/30 01:04:42;;;;;;;3.25;2.03;;;;;;;20.13;100.00;98304.56;4484553;32;20093;-66
2023/07/30 01:07:10;;;;;;;4.95;1.65;;;;;;;20.05;100.00;98307.47;4485892;31;20128;-66
2023/07/30 01:09:38;;;;;;;3.67;1.62;;;;;;;20.07;100.00;98299.28;4485741;31;20601;-66
2023/07/30 01:12:06;;;;;;;6.55;1.80;;;;;;;19.99;100.00;98297.66;4485920;31;20181;-65
2023/07/30 01:14:37;;;;;;;2.80;1.60;;;;;;;19.99;100.00;98293.16;4475818;32;20109;-66
2023/07/30 01:17:05;;;;;;;5.30;1.67;;;;;;;20.00;100.00;98281.50;4470236;32;20084;-65
2023/07/30 01:19:33;;;;;;;2.00;1.27;;;;;;;20.03;100.00;98269.63;4470089;32;20096;-65
2023/07/30 01:22:00;;;;;;;3.97;1.30;;;;;;;20.08;100.00;98261.84;4470062;32;20088;-66
2023/07/30 01:24:28;;;;;;;2.10;1.20;;;;;;;20.06;100.00;98249.78;4470061;32;20131;-65
2023/07/30 01:27:03;;;;;;;1.65;1.23;;;;;;;20.13;100.00;98247.91;4469962;32;20478;-65
2023/07/30 01:30:04;;;;;;;3.72;1.67;;;;;;;20.17;100.00;98252.59;4470067;32;20533;-65
2023/07/30 01:32:33;;;;;;;3.45;1.60;;;;;;;20.13;100.00;98248.72;4454588;32;20473;-66
2023/07/30 01:35:03;;;;;;;3.08;1.80;;;;;;;20.04;100.00;98247.31;4454916;32;20117;-66
2023/07/30 01:37:31;;;;;;;2.78;1.90;;;;;;;19.96;100.00;98240.41;4454671;32;20155;-66
2023/07/30 01:40:01;;;;;;;2.95;1.75;;;;;;;19.89;100.00;98236.94;4467711;32;20101;-66
2023/07/30 01:42:30;;;;;;;3.72;1.73;;;;;;;19.83;100.00;98240.44;4467473;32;20112;-66
2023/07/30 01:44:58;;;;;;;3.80;1.40;;;;;;;19.84;100.00;98237.56;4467508;32;20489;-66
2023/07/30 01:47:25;;;;;;;2.03;1.52;;;;;;;19.87;100.00;98233.69;4467384;32;20177;-66
2023/07/30 01:49:54;;;;;;;2.65;1.40;;;;;;;19.89;100.00;98236.12;4466525;32;20080;-66
2023/07/30 01:52:21;;;;;;;3.10;1.42;;;;;;;19.89;100.00;98233.47;4457740;32;20398;-66
2023/07/30 01:54:51;;;;;;;3.80;1.77;;;;;;;19.89;100.00;98234.28;4451728;32;20094;-66
2023/07/30 01:57:19;;;;;;;1.83;1.30;;;;;;;19.96;100.00;98235.09;4451801;32;20132;-66
2023/07/30 01:59:47;;;;;;;1.85;1.35;;;;;;;19.95;100.00;98236.09;4451841;32;20092;-66
2023/07/30 02:02:14;;;;;;;2.72;1.70;;;;;;;19.96;100.00;98234.28;4451951;32;20127;-66
2023/07/30 02:04:42;;;;;;;1.87;1.40;;;;;;;19.97;100.00;98236.72;4451526;32;20136;-66
2023/07/30 02:07:10;;;;;;;1.83;1.40;;;;;;;20.01;100.00;98237.91;4451691;32;20147;-66
2023/07/30 02:09:38;;;;;;;2.40;1.40;;;;;;;20.07;100.00;98244.25;4477563;32;20160;-65
2023/07/30 02:12:06;;;;;;;2.62;1.60;;;;;;;20.07;100.00;98243.44;4485395;31;20092;-66
2023/07/30 02:14:34;;;;;;;4.32;1.77;;;;;;;20.09;100.00;98236.88;4485527;31;20118;-66
2023/07/30 02:17:02;;;;;;;1.62;1.27;;;;;;;20.11;100.00;98236.69;4485348;31;20097;-66
2023/07/30 02:19:29;;;;;;;2.53;1.52;;;;;;;20.12;100.00;98232.97;4485172;31;20080;-66
2023/07/30 02:21:57;;;;;;;1.30;1.15;;;;;;;20.20;100.00;98230.06;4485555;32;20119;-66
2023/07/30 02:24:25;;;;;;;2.85;1.30;;;;;;;20.23;100.00;98223.50;4485196;32;20135;-66
2023/07/30 02:26:52;;;;;;;2.42;1.08;;;;;;;20.30;100.00;98229.59;4485238;32;20096;-66
2023/07/30 02:29:20;;;;;;;2.20;1.40;;;;;;;20.30;100.00;98238.41;4485480;32;20092;-66
2023/07/30 02:31:48;;;;;;;4.50;1.40;;;;;;;20.39;100.00;98239.81;4485088;32;20096;-66
2023/07/30 02:34:15;;;;;;;3.45;1.52;;;;;;;20.53;100.00;98239.69;4485158;32;20112;-66
2023/07/30 02:36:44;;;;;;;2.10;1.23;;;;;;;20.52;100.00;98243.41;4485255;32;20619;-66
2023/07/30 02:39:11;;;;;;;2.00;1.37;;;;;;;20.55;100.00;98240.31;4484988;32;20188;-66
2023/07/30 02:41:41;;;;;;;1.60;1.10;;;;;;;20.62;100.00;98240.25;4485178;32;20172;-66
2023/07/30 02:44:08;;;;;;;2.37;1.30;;;;;;;20.67;100.00;98243.13;4485065;32;20100;-66
2023/07/30 02:46:36;;;;;;;2.55;1.00;;;;;;;20.69;100.00;98243.72;4485182;32;20088;-66
2023/07/30 02:49:04;;;;;;;2.78;1.35;;;;;;;20.76;100.00;98246.34;4485073;32;20114;-66
2023/07/30 02:51:31;;;;;;;2.17;1.30;;;;;;;20.74;100.00;98241.22;4484816;32;20158;-66
2023/07/30 02:54:04;;;;;;;1.70;1.30;;;;;;;20.74;100.00;98246.53;4485360;32;20112;-66
2023/07/30 02:56:31;;;;;;;4.50;1.27;;;;;;;20.80;100.00;98239.56;4485022;31;20647;-66
2023/07/30 02:58:59;;;;;;;2.28;1.10;;;;;;;20.81;100.00;98251.84;4485151;32;20466;-66
2023/07/30 03:01:27;;;;;;;2.50;1.35;;;;;;;20.79;100.00;98243.22;4485203;31;20122;-66
2023/07/30 03:03:55;;;;;;;2.08;1.40;;;;;;;20.79;100.00;98240.56;4484978;31;20775;-66
2023/07/30 03:06:23;;;;;;;2.37;1.33;;;;;;;20.79;100.00;98240.56;4484939;32;20084;-66
2023/07/30 03:08:51;;;;;;;2.37;1.35;;;;;;;20.77;100.00;98242.66;4484763;31;20114;-66
2023/07/30 03:11:18;;;;;;;2.45;1.42;;;;;;;20.90;99.54;98239.87;4484912;31;20101;-66
2023/07/30 03:13:46;;;;;;;1.77;1.10;;;;;;;20.90;99.60;98239.87;4484570;32;20104;-66
2023/07/30 03:16:14;;;;;;;2.15;1.30;;;;;;;20.89;98.72;98243.56;4484804;32;20104;-66
2023/07/30 03:18:42;;;;;;;1.52;1.20;;;;;;;20.92;98.63;98249.28;4484854;31;20119;-66
2023/07/30 03:21:09;;;;;;;1.85;1.45;;;;;;;20.93;97.67;98247.44;4484671;32;20552;-66
2023/07/30 03:23:40;;;;;;;2.65;1.20;;;;;;;21.03;96.96;98250.44;4484789;32;20089;-66
2023/07/30 03:26:08;;;;;;;2.22;1.35;;;;;;;21.12;96.92;98252.81;4484780;31;20097;-66
2023/07/30 03:28:36;;;;;;;4.47;1.20;;;;;;;21.15;96.71;98255.03;4484737;32;20091;-66
2023/07/30 03:31:07;;;;;;;1.90;1.20;;;;;;;21.14;96.44;98256.09;4484924;32;20080;-66
2023/07/30 03:33:35;;;;;;;1.73;1.30;;;;;;;21.17;96.42;98263.66;4484521;32;20120;-66
2023/07/30 03:36:03;;;;;;;2.50;1.92;;;;;;;21.23;96.23;98265.44;4484566;32;20096;-66
2023/07/30 03:38:31;;;;;;;1.70;1.20;;;;;;;21.22;96.49;98258.47;4483176;32;20545;-66
2023/07/30 03:40:58;;;;;;;1.98;1.20;;;;;;;21.27;96.13;98262.13;4484336;32;20146;-66
2023/07/30 03:43:26;;;;;;;1.90;1.40;;;;;;;21.29;95.44;98264.56;4484562;32;20120;-66
2023/07/30 03:45:54;;;;;;;1.95;1.42;;;;;;;21.30;96.08;98268.03;4484325;32;20119;-66
2023/07/30 03:48:21;;;;;;;3.25;1.52;;;;;;;21.36;95.64;98261.81;4484142;32;20088;-66
2023/07/30 03:50:49;;;;;;;2.15;1.45;;;;;;;21.37;95.75;98264.25;4484292;32;20514;-66
2023/07/30 03:53:17;;;;;;;1.80;1.40;;;;;;;21.38;95.92;98255.25;4484232;31;20100;-66
2023/07/30 03:55:44;;;;;;;1.83;1.20;;;;;;;21.37;96.29;98261.59;4484327;31;20100;-66
2023/07/30 03:58:13;;;;;;;3.28;1.62;;;;;;;21.39;95.70;98267.53;4484583;32;20095;-66
2023/07/30 04:00:40;;;;;;;2.22;1.40;;;;;;;21.40;95.32;98274.50;4484358;31;20097;-66
2023/07/30 04:03:08;;;;;;;2.33;1.30;;;;;;;21.42;95.71;98275.09;4484075;32;20560;-66
2023/07/30 04:05:36;;;;;;;2.83;1.80;;;;;;;21.46;95.62;98275.47;4484082;31;20172;-66
2023/07/30 04:08:04;;;;;;;2.17;1.40;;;;;;;21.51;95.64;98282.84;4484313;31;20119;-66
2023/07/30 04:10:32;;;;;;;3.37;1.40;;;;;;;21.44;96.25;98282.88;4484014;32;20514;-66
2023/07/30 04:12:59;;;;;;;1.75;1.33;;;;;;;21.47;96.56;98281.59;4484388;31;20104;-66
2023/07/30 04:15:27;;;;;;;4.25;1.40;;;;;;;21.55;96.81;98286.69;4486284;32;20160;-66
2023/07/30 04:17:56;;;;;;;2.22;1.50;;;;;;;21.53;97.18;98288.75;4486351;32;20497;-66
2023/07/30 04:20:24;;;;;;;3.03;1.60;;;;;;;21.51;97.17;98288.16;4486183;31;20093;-66
2023/07/30 04:22:52;;;;;;;3.05;1.60;;;;;;;21.44;97.31;98283.69;4486053;32;20165;-66
2023/07/30 04:25:21;;;;;;;2.67;1.77;;;;;;;21.47;97.64;98281.59;4486172;31;20475;-66
2023/07/30 04:27:48;;;;;;;4.37;1.50;;;;;;;21.49;98.19;98288.34;4485903;32;20083;-66
2023/07/30 04:30:16;;;;;;;2.70;1.45;;;;;;;21.54;98.26;98287.72;4485980;32;20089;-66
2023/07/30 04:32:44;;;;;;;2.12;1.65;;;;;;;21.52;100.00;98295.94;4486026;31;20108;-66
2023/07/30 04:35:12;;;;;;;2.25;1.50;;;;;;;21.55;99.05;98295.50;4486073;32;20097;-66
2023/07/30 04:37:40;;;;;;;2.62;1.60;;;;;;;21.60;99.95;98297.50;4486237;32;20167;-66
2023/07/30 04:40:09;;;;;;;2.35;1.27;;;;;;;21.73;100.00;98301.91;4485981;32;20122;-66
2023/07/30 04:42:43;;;;;;;2.33;1.40;;;;;;;21.77;99.64;98301.25;4485991;31;20115;-66
2023/07/30 04:45:13;;;;;;;2.65;1.70;;;;;;;21.82;99.73;98302.41;4486417;32;20142;-66
2023/07/30 04:47:41;;;;;;;2.22;1.17;;;;;;;21.86;97.20;98300.94;4486263;31;20126;-66
2023/07/30 04:50:09;;;;;;;1.70;1.33;;;;;;;21.95;97.82;98294.25;4486186;32;20138;-66
2023/07/30 04:52:39;;;;;;;1.90;1.40;;;;;;;21.88;97.49;98298.88;4486096;32;20240;-66
2023/07/30 04:55:07;;;;;;;4.93;1.58;;;;;;;21.87;97.50;98307.91;4486274;31;20108;-66
2023/07/30 04:57:34;;;;;;;3.53;1.33;;;;;;;22.01;96.70;98313.91;4485978;31;20100;-66
2023/07/30 05:00:02;;;;;;;3.15;1.73;;;;;;;22.06;97.21;98317.53;4486101;31;20108;-66
2023/07/30 05:02:35;;;;;;;2.05;1.37;;;;;;;22.08;98.02;98317.31;4486085;31;20116;-66
2023/07/30 05:05:05;;;;;;;2.17;1.10;;;;;;;22.09;98.20;98316.25;4485951;31;20115;-66
2023/07/30 05:07:33;;;;;;;2.28;1.40;;;;;;;22.14;97.91;98314.56;4485915;31;20100;-66
2023/07/30 05:10:02;;;;;;;2.30;1.40;;;;;;;21.99;98.87;98316.78;4485980;31;20091;-66
2023/07/30 05:12:32;;;;;;;2.92;1.50;;;;;;;21.95;99.50;98320.94;4485924;31;20081;-66
2023/07/30 05:15:00;;;;;;;2.45;1.35;;;;;;;22.06;99.88;98322.88;4486063;32;20118;-66
2023/07/30 05:17:27;;;;;;;2.58;1.70;;;;;;;22.16;99.49;98317.00;4485906;32;20088;-66
2023/07/30 05:19:55;;;;;;;4.05;1.50;;;;;;;22.17;98.43;98317.84;4485856;32;20085;-66
2023/07/30 05:22:25;;;;;;;3.33;1.60;;;;;;;22.09;99.80;98306.41;4485939;32;20104;-66
2023/07/30 05:24:52;;;;;;;2.40;1.35;;;;;;;22.03;99.68;98307.31;4484698;31;20152;-66
2023/07/30 05:27:20;;;;;;;2.25;1.42;;;;;;;22.14;99.68;98306.56;4485712;32;20110;-66
2023/07/30 05:29:48;;;;;;;4.65;1.52;;;;;;;22.30;98.33;98307.81;4485665;32;20165;-66
2023/07/30 05:32:16;;;;;;;3.05;1.60;;;;;;;22.22;98.12;98305.44;4485916;31;20092;-66
2023/07/30 05:34:44;;;;;;;3.33;1.90;;;;;;;22.25;98.11;98304.19;4485876;31;20085;-66
2023/07/30 05:37:12;;;;;;;2.75;1.52;;;;;;;22.23;98.70;98308.94;4485614;32;20152;-66
2023/07/30 05:39:40;;;;;;;2.00;1.33;;;;;;;22.44;97.78;98315.69;4485592;32;20168;-66
2023/07/30 05:42:07;;;;;;;3.20;1.77;;;;;;;22.40;98.16;98320.62;4485323;32;20131;-66
2023/07/30 05:44:35;;;;;;;4.18;1.70;;;;;;;22.47;97.49;98316.03;4485902;32;20096;-66
2023/07/30 05:47:03;;;;;;;2.58;1.70;;;;;;;22.30;98.88;98315.81;4485538;32;20099;-66
2023/07/30 05:49:32;;;;;;;2.03;1.48;;;;;;;22.48;98.70;98325.69;4485391;31;20187;-66
2023/07/30 05:52:00;;;;;;;2.95;1.80;;;;;;;22.64;97.57;98324.22;4485411;31;20108;-66
2023/07/30 05:54:28;;;;;;;2.20;1.70;;;;;;;22.70;96.69;98322.50;4485738;32;20126;-66
2023/07/30 05:56:56;;;;;;;3.95;1.58;;;;;;;22.57;97.62;98318.16;4485728;31;20141;-66
2023/07/30 05:59:23;;;;;;;1.90;1.35;;;;;;;22.70;96.97;98317.16;4485537;31;20100;-66
2023/07/30 06:01:56;;;;;;;3.17;1.52;;;;;;;22.81;96.64;98313.72;4485743;31;20135;-66
2023/07/30 06:04:23;;;;;;;2.37;1.58;;;;;;;22.71;97.04;98326.81;4485417;32;20115;-66
2023/07/30 06:06:51;;;;;;;3.20;1.80;;;;;;;22.75;97.36;98327.97;4485329;32;20084;-66
2023/07/30 06:09:20;;;;;;;2.80;1.58;;;;;;;22.81;96.68;98323.59;4485384;31;20175;-66
2023/07/30 06:11:49;;;;;;;1.80;1.40;;;;;;;22.84;96.94;98328.47;4485746;31;20088;-66
2023/07/30 06:14:17;;;;;;;2.72;1.62;;;;;;;22.96;95.47;98325.84;4485474;31;20157;-66
2023/07/30 06:16:44;;;;;;;2.08;1.58;;;;;;;23.20;94.42;98326.75;4485729;32;20092;-66
2023/07/30 06:19:12;;;;;;;2.67;1.60;;;;;;;23.21;93.23;98326.50;4485200;31;20139;-66
2023/07/30 06:21:40;;;;;;;2.67;1.83;;;;;;;23.32;93.71;98330.25;4485399;32;20085;-66
2023/07/30 06:24:08;;;;;;;2.05;1.73;;;;;;;23.44;92.18;98327.59;4485310;32;20088;-66
2023/07/30 06:26:36;;;;;;;2.33;1.50;;;;;;;23.55;91.08;98320.59;4485205;31;20080;-66
2023/07/30 06:29:03;;;;;;;2.03;1.60;;;;;;;23.67;90.79;98325.97;4485253;32;20114;-66
2023/07/30 06:31:31;;;;;;;3.03;1.70;;;;;;;23.84;89.23;98321.50;4485172;31;20116;-66
2023/07/30 06:33:59;;;;;;;2.78;1.92;;;;;;;23.76;90.72;98327.22;4485208;31;20099;-66
2023/07/30 06:36:29;;;;;;;2.12;1.77;;;;;;;23.73;90.99;98328.50;4484665;32;20114;-66
2023/07/30 06:38:56;;;;;;;3.62;1.70;;;;;;;23.67;91.42;98325.97;4485151;32;20122;-66
2023/07/30 06:41:24;;;;;;;2.95;1.80;;;;;;;23.53;92.10;98328.88;4485097;32;20124;-66
2023/07/30 06:43:52;;;;;;;2.78;1.80;;;;;;;23.51;93.46;98325.63;4484005;32;20372;-66
2023/07/30 06:46:20;;;;;;;5.03;1.98;;;;;;;23.52;93.08;98335.25;4485067;32;20109;-66
2023/07/30 06:48:48;;;;;;;2.97;1.95;;;;;;;23.36;95.35;98334.09;4484947;32;20096;-66
2023/07/30 06:51:19;;;;;;;2.90;2.12;;;;;;;23.17;97.43;98337.88;4484927;32;20109;-66
2023/07/30 06:53:46;;;;;;;2.75;1.95;;;;;;;22.89;98.97;98338.47;4484998;31;20551;-66
2023/07/30 06:56:14;;;;;;;3.80;2.25;;;;;;;22.76;100.00;98345.63;4484794;31;20097;-66
2023/07/30 06:58:42;;;;;;;3.40;2.50;;;;;;;22.58;100.00;98356.38;4485238;31;20560;-66
2023/07/30 07:01:11;;;;;;;4.07;2.12;;;;;;;22.33;100.00;98360.75;4484888;31;20518;-66
2023/07/30 07:03:39;;;;;;;3.45;2.58;;;;;;;21.97;100.00;98356.22;4484989;32;20545;-66
2023/07/30 07:06:07;;;;;;;4.47;2.10;;;;;;;21.87;100.00;98361.25;4485021;31;20527;-66
2023/07/30 07:08:35;;;;;;;4.22;2.50;;;;;;;21.82;100.00;98369.91;4485087;31;20562;-65
2023/07/30 07:11:03;;;;;;;4.65;2.30;;;;;;;21.77;100.00;98364.38;4485039;31;20479;-66
2023/07/30 07:13:30;;;;;;;3.67;2.30;;;;;;;21.67;100.00;98372.09;4484701;31;20135;-66
2023/07/30 07:15:58;;;;;;;3.08;1.95;;;;;;;21.63;100.00;98377.03;4484728;32;20100;-66
2023/07/30 07:18:26;;;;;;;4.07;2.55;;;;;;;21.49;100.00;98381.62;4484802;32;20092;-66
2023/07/30 07:20:54;;;;;;;2.95;2.30;;;;;;;21.58;100.00;98390.22;4484938;32;20152;-66
2023/07/30 07:23:22;;;;;;;3.17;2.25;;;;;;;21.43;100.00;98379.84;4484763;32;20119;-66
2023/07/30 07:25:52;;;;;;;2.15;1.77;;;;;;;21.40;100.00;98378.41;4484811;31;20480;-66
2023/07/30 07:28:19;;;;;;;3.62;1.90;;;;;;;21.53;100.00;98382.88;4484682;31;20108;-66
2023/07/30 07:30:47;;;;;;;3.60;2.15;;;;;;;21.52;100.00;98385.75;4484660;32;20161;-66
2023/07/30 07:33:16;;;;;;;2.72;2.03;;;;;;;21.40;100.00;98390.94;4484405;31;20100;-66
2023/07/30 07:35:44;;;;;;;3.58;1.85;;;;;;;21.38;100.00;98387.69;4484765;32;20628;-66
2023/07/30 07:38:11;;;;;;;3.17;2.03;;;;;;;21.42;100.00;98397.69;4484565;32;20100;-66
2023/07/30 07:40:40;;;;;;;2.83;2.03;;;;;;;21.49;100.00;98388.81;4484538;32;20126;-66
2023/07/30 07:43:09;;;;;;;3.17;2.30;;;;;;;21.46;100.00;98398.06;4484554;31;20115;-66
2023/07/30 07:45:36;;;;;;;3.72;2.08;;;;;;;21.38;100.00;98393.81;4484341;31;20461;-66
2023/07/30 07:48:04;;;;;;;3.33;2.03;;;;;;;21.32;100.00;98409.81;4484566;32;20123;-66
2023/07/30 07:50:32;;;;;;;2.60;2.00;;;;;;;21.23;100.00;98404.78;4486689;31;20118;-66
2023/07/30 07:53:01;;;;;;;3.12;2.30;;;;;;;21.09;100.00;98411.22;4486336;32;20104;-66
2023/07/30 07:55:29;;;;;;;3.20;2.15;;;;;;;20.81;100.00;98412.38;4486225;31;20103;-66
2023/07/30 07:57:56;;;;;;;8.75;2.53;;;;;;;20.79;100.00;98410.94;4486344;31;20092;-66
2023/07/30 08:00:25;;;;;;;4.87;2.25;;;;;;;20.70;100.00;98408.53;4486436;31;20096;-66
2023/07/30 08:02:53;;;;;;;3.55;2.30;;;;;;;20.61;100.00;98403.66;4486233;31;20280;-66
2023/07/30 08:05:20;;;;;;;5.55;2.60;;;;;;;20.46;100.00;98411.88;4486224;31;20171;-66
2023/07/30 08:07:48;;;;;;;5.72;2.30;;;;;;;20.28;100.00;98410.69;4486416;31;20151;-66
2023/07/30 08:10:17;;;;;;;4.25;2.58;;;;;;;20.23;100.00;98404.38;4486360;31;20465;-66
2023/07/30 08:12:48;;;;;;;6.00;2.35;;;;;;;20.20;100.00;98410.94;4486272;31;20119;-66
2023/07/30 08:15:16;;;;;;;8.43;2.17;;;;;;;20.11;100.00;98407.69;4486075;31;20402;-66
2023/07/30 08:17:46;;;;;;;3.55;2.28;;;;;;;20.01;100.00;98408.09;4486280;32;20109;-66
2023/07/30 08:20:14;;;;;;;3.20;2.10;;;;;;;20.07;100.00;98405.66;4486240;31;20105;-66
2023/07/30 08:22:42;;;;;;;3.67;2.05;;;;;;;20.05;100.00;98405.03;4485989;31;20123;-66
2023/07/30 08:25:10;;;;;;;3.97;2.05;;;;;;;19.97;100.00;98414.88;4486131;32;20118;-67
2023/07/30 08:27:39;;;;;;;6.53;2.58;;;;;;;20.03;100.00;98408.72;4485979;31;20101;-66
2023/07/30 08:30:10;;;;;;;3.83;2.45;;;;;;;20.05;100.00;98399.72;4486139;32;20081;-66
2023/07/30 08:32:41;;;;;;;3.25;1.98;;;;;;;20.02;100.00;98407.06;4486238;31;20420;-66
2023/07/30 08:35:10;;;;;;;5.00;2.15;;;;;;;19.94;100.00;98402.00;4485743;31;20143;-66
2023/07/30 08:37:38;;;;;;;3.58;2.00;;;;;;;20.02;100.00;98393.78;4486060;31;20551;-66
2023/07/30 08:40:07;;;;;;;3.30;2.28;;;;;;;20.02;100.00;98396.44;4486103;31;20112;-66
2023/07/30 08:42:36;;;;;;;2.90;2.10;;;;;;;20.10;100.00;98390.06;4486042;31;20092;-66
2023/07/30 08:45:06;;;;;;;3.00;1.83;;;;;;;20.22;100.00;98395.59;4484770;32;20122;-66
2023/07/30 08:47:35;;;;;;;2.78;1.73;;;;;;;20.39;100.00;98399.44;4485973;31;20092;-66
2023/07/30 08:50:03;;;;;;;3.85;2.12;;;;;;;20.45;100.00;98402.25;4485865;31;20160;-66
2023/07/30 08:52:30;;;;;;;3.25;2.10;;;;;;;20.69;100.00;98395.44;4486080;31;20100;-66
2023/07/30 08:55:01;;;;;;;4.35;1.83;;;;;;;20.83;100.00;98402.34;4484602;32;20176;-66
2023/07/30 08:57:29;;;;;;;2.35;1.95;;;;;;;21.12;100.00;98401.97;4486099;31;20094;-66
2023/07/30 09:00:25;;;;;;;2.78;1.48;;;;;;;21.27;100.00;98402.47;4485780;31;20450;-66
2023/07/30 09:02:59;;;;;;;2.22;1.60;;;;;;;21.49;100.00;98402.94;4484197;32;20097;-66
2023/07/30 09:05:29;;;;;;;3.08;2.00;;;;;;;21.62;100.00;98396.75;4485920;31;20107;-66
2023/07/30 09:07:58;;;;;;;2.33;1.50;;;;;;;21.64;100.00;98400.00;4484669;32;20092;-66
2023/07/30 09:10:27;;;;;;;3.05;1.85;;;;;;;21.83;100.00;98408.03;4485789;31;20164;-66
2023/07/30 09:12:58;;;;;;;4.85;1.87;;;;;;;21.89;100.00;98408.00;4486203;31;20104;-66
2023/07/30 09:15:33;;;;;;;2.97;1.77;;;;;;;21.86;100.00;98416.41;4485588;31;20092;-66
2023/07/30 09:18:01;;;;;;;1.90;1.40;;;;;;;22.10;100.00;98414.75;4485892;31;20769;-66
2023/07/30 09:20:40;;;;;;;2.83;1.65;;;;;;;22.06;100.00;98410.91;4485818;31;20088;-66
2023/07/30 09:23:09;;;;;;;1.80;1.40;;;;;;;22.07;100.00;98415.19;4485912;31;20092;-66
2023/07/30 09:25:37;;;;;;;3.33;1.62;;;;;;;22.12;100.00;98414.53;4485458;31;20510;-66
2023/07/30 09:28:10;;;;;;;1.92;1.52;;;;;;;22.13;100.00;98413.50;4484605;32;20111;-66
2023/07/30 09:30:38;;;;;;;;;;;;;;;22.21;100.00;98413.22;4484751;32;20093;-66
2023/07/30 09:33:05;;;;;;;2.80;2.00;;;;;;;22.26;100.00;98413.34;4486071;31;20313;-66
2023/07/30 09:35:32;;;;;;;3.55;2.10;;;;;;;;;;4485448;32;20442;-66
2023/07/30 09:38:03;;;;;;;7.43;2.60;;;;;;;22.27;100.00;98416.84;4485888;31;20095;-66
2023/07/30 09:40:33;;;;;;;4.12;2.92;;;;;;;22.10;100.00;98412.06;4485656;31;20149;-66
2023/07/30 09:43:03;;;;;;;8.35;2.95;;;;;;;22.10;100.00;98419.28;4485749;31;20119;-66
2023/07/30 09:45:35;;;;;;;5.35;3.28;;;;;;;22.11;100.00;98404.91;4485838;31;20100;-66
2023/07/30 09:48:06;;;;;;;5.50;3.45;;;;;;;21.88;100.00;98403.69;4485468;31;20110;-66
2023/07/30 09:50:34;;;;;;;6.15;3.20;;;;;;;21.85;100.00;98411.28;4485476;31;20488;-66
2023/07/30 09:53:03;;;;;;;4.35;2.97;;;;;;;21.79;100.00;98399.66;4485433;31;20100;-66
2023/07/30 09:55:30;;;;;;;5.20;3.47;;;;;;;22.02;100.00;98406.22;4485484;32;20157;-66
2023/07/30 09:57:58;;;;;;;5.35;3.50;;;;;;;22.02;100.00;98412.38;4485428;31;20168;-66
2023/07/30 10:00:27;;;;;;;4.78;3.30;;;;;;;21.85;100.00;98397.97;4485511;31;20165;-66
2023/07/30 10:02:55;;;;;;;6.90;3.25;;;;;;;21.69;100.00;98402.81;4485442;31;20127;-66
2023/07/30 10:05:25;;;;;;;4.90;3.30;;;;;;;21.58;100.00;98403.53;4484136;32;20100;-66
2023/07/30 10:08:07;;;;;;;3.75;2.67;;;;;;;21.57;100.00;98405.38;4485400;31;20100;-66
2023/07/30 10:10:35;;;;;;;6.18;2.83;;;;;;;21.60;100.00;98417.47;4485021;31;20444;-66
2023/07/30 10:13:06;;;;;;;4.20;2.78;;;;;;;21.83;100.00;98414.19;4485166;31;20126;-66
2023/07/30 10:15:37;;;;;;;4.65;2.58;;;;;;;21.77;100.00;98409.72;4485311;31;20110;-66
2023/07/30 10:18:06;;;;;;;4.30;2.73;;;;;;;21.72;100.00;98414.91;4485297;31;20072;-66
2023/07/30 10:20:34;;;;;;;4.22;2.28;;;;;;;21.86;100.00;98412.94;4485380;31;20108;-66
2023/07/30 10:23:04;;;;;;;5.65;2.80;;;;;;;21.96;100.00;98408.72;4485375;31;20119;-66
2023/07/30 10:25:52;;;;;;;4.28;2.90;;;;;;;21.96;100.00;98402.59;4485357;31;20190;-66
2023/07/30 10:28:29;;;;;;;5.07;3.05;;;;;;;21.99;100.00;98407.47;4485110;31;20077;-66
2023/07/30 10:30:58;;;;;;;4.72;3.28;;;;;;;22.00;100.00;98402.94;4485398;32;20120;-66
2023/07/30 10:33:46;;;;;;;5.12;3.08;;;;;;;21.87;100.00;98393.25;4485095;31;20172;-66
2023/07/30 10:36:14;;;;;;;4.32;3.00;;;;;;;22.00;100.00;98390.44;4485421;32;20390;-66
2023/07/30 10:38:42;;;;;;;4.93;3.35;;;;;;;21.87;100.00;98390.56;4483851;32;20513;-66
2023/07/30 10:41:16;;;;;;;7.37;3.60;;;;;;;21.79;100.00;98389.81;4484036;32;20129;-66
2023/07/30 10:43:48;;;;;;;6.20;3.47;;;;;;;21.72;100.00;98389.03;4485215;31;20157;-66
2023/07/30 10:46:17;;;;;;;8.15;3.72;;;;;;;21.78;100.00;98390.03;4485212;31;20522;-66
2023/07/30 10:48:47;;;;;;;4.95;3.72;;;;;;;21.93;100.00;98392.34;4484840;31;20103;-66
2023/07/30 10:51:16;;;;;;;7.50;3.67;;;;;;;21.98;100.00;98396.00;4485065;31;20122;-66
2023/07/30 10:53:45;;;;;;;5.35;3.95;;;;;;;21.97;100.00;98398.91;4485084;31;20122;-66
2023/07/30 10:56:15;;;;;;;5.47;3.47;;;;;;;22.04;100.00;98404.16;4485126;31;20474;-66
2023/07/30 10:58:43;;;;;;;5.18;3.37;;;;;;;22.19;100.00;98390.47;4484879;31;20123;-65
2023/07/30 11:01:10;;;;;;;4.18;3.22;;;;;;;22.24;100.00;98390.59;4485085;31;20243;-66
2023/07/30 11:03:38;;;;;;;5.03;2.85;;;;;;;22.16;100.00;98397.03;4485122;31;20151;-65
2023/07/30 11:06:07;;;;;;;4.35;2.95;;;;;;;22.28;100.00;98389.94;4485004;31;20095;-66
2023/07/30 11:08:41;;;;;;;4.32;2.90;;;;;;;22.25;100.00;98394.91;4484869;31;20145;-66
2023/07/30 11:11:10;;;;;;;5.40;3.40;;;;;;;22.18;100.00;98400.31;4485048;31;20116;-66
2023/07/30 11:13:42;;;;;;;7.18;3.60;;;;;;;22.24;100.00;98396.78;4484954;31;20473;-66
2023/07/30 11:16:10;;;;;;;4.32;2.87;;;;;;;22.36;100.00;98406.72;4484836;31;20096;-65
2023/07/30 11:18:39;;;;;;;4.43;3.03;;;;;;;22.26;100.00;98401.88;4484528;31;20572;-65
2023/07/30 11:21:12;;;;;;;3.92;2.60;;;;;;;22.26;100.00;98402.69;4484976;31;20594;-65
2023/07/30 11:23:44;;;;;;;5.00;2.93;;;;;;;22.36;100.00;98399.53;4483323;31;20092;-65
2023/07/30 11:26:18;;;;;;;6.78;2.47;;;;;;;22.49;100.00;98401.22;4484883;31;20231;-65
2023/07/30 11:28:46;;;;;;;4.10;2.80;;;;;;;22.53;100.00;98402.44;4484619;31;20541;-66
2023/07/30 11:31:21;;;;;;;3.35;2.22;;;;;;;22.51;100.00;98399.16;4484745;31;20142;-65
2023/07/30 11:33:51;;;;;;;5.00;2.65;;;;;;;22.51;100.00;98401.81;4484815;31;20586;-65
2023/07/30 11:36:21;;;;;;;3.83;2.47;;;;;;;22.33;100.00;98403.47;4483483;32;20085;-65